createdAt,value
2022-11-16T00:00:13.006Z,6.84
2022-11-16T00:01:21.031Z,6.83
2022-11-16T00:02:23.939Z,6.83
2022-11-16T00:03:26.767Z,6.84
2022-11-16T00:04:29.381Z,6.85
2022-11-16T00:05:32.295Z,6.83
2022-11-16T00:06:35.272Z,6.84
2022-11-16T00:07:37.979Z,6.87
2022-11-16T00:08:43.601Z,6.88
2022-11-16T00:09:46.997Z,6.87
2022-11-16T00:10:49.781Z,6.86
2022-11-16T00:12:01.672Z,6.87
2022-11-16T00:13:04.225Z,6.94
2022-11-16T00:14:07.430Z,6.90
2022-11-16T00:15:10.247Z,6.88
2022-11-16T00:16:18.309Z,6.90
2022-11-16T00:17:21.117Z,6.94
2022-11-16T00:18:24.336Z,6.92
2022-11-16T00:19:27.816Z,6.94
2022-11-16T00:20:30.457Z,6.95
2022-11-16T00:21:33.679Z,6.95
2022-11-16T00:22:36.391Z,6.94
2022-11-16T00:23:39.732Z,6.95
2022-11-16T00:24:42.368Z,6.91
2022-11-16T00:25:45.290Z,7.02
2022-11-16T00:26:49.268Z,7.05
2022-11-16T00:27:51.937Z,6.95
2022-11-16T00:28:55.888Z,6.95
2022-11-16T00:29:58.698Z,7.07
2022-11-16T00:31:03.988Z,7.04
2022-11-16T00:32:06.810Z,6.98
2022-11-16T00:33:16.316Z,6.94
2022-11-16T00:34:19.570Z,6.95
2022-11-16T00:35:22.427Z,6.95
2022-11-16T00:36:25.352Z,6.97
2022-11-16T00:37:28.094Z,6.93
2022-11-16T00:38:31.105Z,6.87
2022-11-16T00:39:34.564Z,6.94
2022-11-16T00:40:37.340Z,6.93
2022-11-16T00:41:40.548Z,6.94
2022-11-16T00:42:43.474Z,6.93
2022-11-16T00:43:46.551Z,6.89
2022-11-16T00:44:49.220Z,6.97
2022-11-16T00:45:51.883Z,6.93
2022-11-16T00:46:54.746Z,6.93
2022-11-16T00:48:00.494Z,6.97
2022-11-16T00:49:04.053Z,7.02
2022-11-16T00:50:08.638Z,6.95
2022-11-16T00:51:11.593Z,6.94
2022-11-16T00:52:14.321Z,6.92
2022-11-16T00:53:20.289Z,6.88
2022-11-16T00:54:23.613Z,6.92
2022-11-16T00:55:26.372Z,6.89
2022-11-16T00:56:29.290Z,6.88
2022-11-16T00:57:32.180Z,6.88
2022-11-16T00:58:35.075Z,6.88
2022-11-16T00:59:37.965Z,6.93
2022-11-16T01:00:41.644Z,6.94
2022-11-16T01:01:44.620Z,6.94
2022-11-16T01:02:47.551Z,6.93
2022-11-16T01:03:50.344Z,6.95
2022-11-16T01:04:53.293Z,6.94
2022-11-16T01:06:10.821Z,6.98
2022-11-16T01:07:14.328Z,6.98
2022-11-16T01:08:17.211Z,6.97
2022-11-16T01:09:19.900Z,6.95
2022-11-16T01:10:24.089Z,6.96
2022-11-16T01:11:45.492Z,6.98
2022-11-16T01:12:49.901Z,7.05
2022-11-16T01:13:53.693Z,7.05
2022-11-16T01:14:56.455Z,7.03
2022-11-16T01:15:59.149Z,7.06
2022-11-16T01:17:01.935Z,7.07
2022-11-16T01:18:04.698Z,7.02
2022-11-16T01:19:08.083Z,7.02
2022-11-16T01:20:24.448Z,7.16
2022-11-16T01:21:27.766Z,7.15
2022-11-16T01:22:30.435Z,7.19
2022-11-16T01:23:33.386Z,7.17
2022-11-16T01:24:36.171Z,7.10
2022-11-16T01:25:39.017Z,7.07
2022-11-16T01:26:41.871Z,7.04
2022-11-16T01:27:44.870Z,7.02
2022-11-16T01:28:47.567Z,7.02
2022-11-16T01:29:50.371Z,7.04
2022-11-16T01:30:53.090Z,7.04
2022-11-16T01:31:58.049Z,7.03
2022-11-16T01:33:00.774Z,7.03
2022-11-16T01:34:03.810Z,7.05
2022-11-16T01:35:07.734Z,7.05
2022-11-16T01:36:15.013Z,7.03
2022-11-16T01:37:18.520Z,7.06
2022-11-16T01:38:23.889Z,7.06
2022-11-16T01:39:28.953Z,7.07
2022-11-16T01:40:31.870Z,7.06
2022-11-16T01:41:35.110Z,7.07
2022-11-16T01:42:37.844Z,7.08
2022-11-16T01:43:56.174Z,7.09
2022-11-16T01:45:06.397Z,7.07
2022-11-16T01:46:09.336Z,7.12
2022-11-16T01:47:14.055Z,7.10
2022-11-16T01:48:22.208Z,7.12
2022-11-16T01:49:28.516Z,7.14
2022-11-16T01:50:31.385Z,7.13
2022-11-16T01:51:35.022Z,7.12
2022-11-16T01:52:44.627Z,7.15
2022-11-16T01:53:47.415Z,7.17
2022-11-16T01:54:53.844Z,7.19
2022-11-16T01:55:56.866Z,7.17
2022-11-16T01:57:04.289Z,7.15
2022-11-16T01:58:07.606Z,7.24
2022-11-16T01:59:11.363Z,7.29
2022-11-16T02:00:15.085Z,7.35
2022-11-16T02:01:17.950Z,7.33
2022-11-16T02:02:20.873Z,7.29
2022-11-16T02:03:23.593Z,7.27
2022-11-16T02:04:26.283Z,7.23
2022-11-16T02:05:42.774Z,7.25
2022-11-16T02:07:17.389Z,7.20
2022-11-16T02:09:22.271Z,7.19
2022-11-16T02:10:43.867Z,7.15
2022-11-16T02:12:34.848Z,7.18
2022-11-16T02:14:11.768Z,7.16
2022-11-16T02:15:43.754Z,7.18
2022-11-16T02:16:58.173Z,7.23
2022-11-16T02:18:21.882Z,7.17
2022-11-16T02:20:02.164Z,7.13
2022-11-16T02:21:14.276Z,7.11
2022-11-16T02:22:29.431Z,7.11
2022-11-16T02:24:04.462Z,7.14
2022-11-16T02:25:23.450Z,7.09
2022-11-16T02:27:04.123Z,7.08
2022-11-16T02:28:35.649Z,7.14
2022-11-16T02:29:43.257Z,7.19
2022-11-16T02:30:51.201Z,7.14
2022-11-16T02:32:23.308Z,7.15
2022-11-16T02:33:33.391Z,7.12
2022-11-16T02:34:49.650Z,7.06
2022-11-16T02:35:56.339Z,7.02
2022-11-16T02:37:03.458Z,7.01
2022-11-16T02:38:12.625Z,7.01
2022-11-16T02:39:20.130Z,7.08
2022-11-16T02:40:25.948Z,7.09
2022-11-16T02:41:34.404Z,7.11
2022-11-16T02:42:45.679Z,7.14
2022-11-16T02:44:02.110Z,7.09
2022-11-16T02:45:09.176Z,7.09
2022-11-16T02:46:28.032Z,7.07
2022-11-16T02:47:33.467Z,7.07
2022-11-16T02:48:42.607Z,7.08
2022-11-16T02:49:50.503Z,7.06
2022-11-16T02:50:54.166Z,7.18
2022-11-16T02:51:59.296Z,7.20
2022-11-16T02:53:03.393Z,7.24
2022-11-16T02:54:17.752Z,7.22
2022-11-16T02:55:20.569Z,7.14
2022-11-16T02:56:24.172Z,7.12
2022-11-16T02:57:32.731Z,7.07
2022-11-16T02:58:35.761Z,7.03
2022-11-16T02:59:44.771Z,7.05
2022-11-16T03:00:56.559Z,7.00
2022-11-16T03:02:08.540Z,6.97
2022-11-16T03:03:18.849Z,6.99
2022-11-16T03:04:44.370Z,6.99
2022-11-16T03:05:52.792Z,7.11
2022-11-16T03:06:58.393Z,7.14
2022-11-16T03:08:17.903Z,7.09
2022-11-16T03:09:31.133Z,7.06
2022-11-16T03:10:57.570Z,7.03
2022-11-16T03:12:03.458Z,6.96
2022-11-16T03:13:08.618Z,6.89
2022-11-16T03:14:17.738Z,6.89
2022-11-16T03:15:20.822Z,6.93
2022-11-16T03:16:46.298Z,6.93
2022-11-16T03:17:50.532Z,6.91
2022-11-16T03:18:58.461Z,6.92
2022-11-16T03:20:12.991Z,6.96
2022-11-16T03:21:26.016Z,6.94
2022-11-16T03:22:45.409Z,7.00
2022-11-16T03:23:48.497Z,7.02
2022-11-16T03:24:51.419Z,7.07
2022-11-16T03:25:57.267Z,7.03
2022-11-16T03:27:40.772Z,6.97
2022-11-16T03:29:02.210Z,7.02
2022-11-16T03:30:23.613Z,7.07
2022-11-16T03:31:35.153Z,7.02
2022-11-16T03:33:02.072Z,7.00
2022-11-16T03:34:11.641Z,7.00
2022-11-16T03:35:28.329Z,6.99
2022-11-16T03:36:38.889Z,6.96
2022-11-16T03:37:43.371Z,7.00
2022-11-16T03:38:48.095Z,7.00
2022-11-16T03:39:53.224Z,7.05
2022-11-16T03:41:08.945Z,7.03
2022-11-16T03:42:16.715Z,7.06
2022-11-16T03:43:21.019Z,7.04
2022-11-16T03:44:23.949Z,7.20
2022-11-16T03:45:27.210Z,7.09
2022-11-16T03:46:29.972Z,7.04
2022-11-16T03:47:32.984Z,7.04
2022-11-16T03:48:38.826Z,7.02
2022-11-16T03:49:46.295Z,7.17
2022-11-16T03:50:49.853Z,7.12
2022-11-16T03:51:52.609Z,7.09
2022-11-16T03:52:55.286Z,7.05
2022-11-16T03:53:58.022Z,7.05
2022-11-16T03:55:00.872Z,7.06
2022-11-16T03:56:03.836Z,6.99
2022-11-16T03:57:06.688Z,6.97
2022-11-16T03:58:09.369Z,7.05
2022-11-16T03:59:12.169Z,7.01
2022-11-16T04:00:15.258Z,7.00
2022-11-16T04:01:18.005Z,7.00
2022-11-16T04:02:21.009Z,6.97
2022-11-16T04:03:23.729Z,7.02
2022-11-16T04:04:45.223Z,7.05
2022-11-16T04:06:06.941Z,7.03
2022-11-16T04:07:28.738Z,6.98
2022-11-16T04:08:50.589Z,6.97
2022-11-16T04:10:11.850Z,7.01
2022-11-16T04:11:35.569Z,7.05
2022-11-16T04:13:01.608Z,7.06
2022-11-16T04:14:23.907Z,7.05
2022-11-16T04:15:45.345Z,7.04
2022-11-16T04:17:06.641Z,7.18
2022-11-16T04:18:29.448Z,7.08
2022-11-16T04:19:54.033Z,7.04
2022-11-16T04:21:19.649Z,7.01
2022-11-16T04:22:46.049Z,7.06
2022-11-16T04:24:07.968Z,7.11
2022-11-16T04:25:21.774Z,7.03
2022-11-16T04:26:45.532Z,6.99
2022-11-16T04:28:07.139Z,7.02
2022-11-16T04:29:10.208Z,7.02
2022-11-16T04:30:13.419Z,7.03
2022-11-16T04:31:34.658Z,7.04
2022-11-16T04:32:56.006Z,7.02
2022-11-16T04:34:17.290Z,6.97
2022-11-16T04:35:38.372Z,6.98
2022-11-16T04:36:59.699Z,7.02
2022-11-16T04:38:02.546Z,6.98
2022-11-16T04:39:05.651Z,6.99
2022-11-16T04:40:09.563Z,7.00
2022-11-16T04:41:32.610Z,7.03
2022-11-16T04:42:35.411Z,7.01
2022-11-16T04:43:38.151Z,6.99
2022-11-16T04:44:59.643Z,7.02
2022-11-16T04:46:20.887Z,7.05
2022-11-16T04:47:24.229Z,7.02
2022-11-16T04:48:26.873Z,6.94
2022-11-16T04:49:29.644Z,6.95
2022-11-16T04:50:33.581Z,6.95
2022-11-16T04:51:36.291Z,6.99
2022-11-16T04:52:39.091Z,6.95
2022-11-16T04:53:41.992Z,6.98
2022-11-16T04:54:44.846Z,6.96
2022-11-16T04:55:50.552Z,6.97
2022-11-16T04:56:53.215Z,6.94
2022-11-16T04:57:55.887Z,6.94
2022-11-16T04:58:58.596Z,6.98
2022-11-16T05:00:01.224Z,7.00
2022-11-16T05:01:04.305Z,7.01
2022-11-16T05:02:10.170Z,6.97
2022-11-16T05:03:13.405Z,6.96
2022-11-16T05:04:16.182Z,7.04
2022-11-16T05:05:19.401Z,7.00
2022-11-16T05:06:22.354Z,6.95
2022-11-16T05:07:25.270Z,6.97
2022-11-16T05:08:28.072Z,7.12
2022-11-16T05:09:30.760Z,7.12
2022-11-16T05:10:33.547Z,7.10
2022-11-16T05:11:36.222Z,7.05
2022-11-16T05:12:39.127Z,7.06
2022-11-16T05:13:41.711Z,7.06
2022-11-16T05:14:44.597Z,7.02
2022-11-16T05:15:47.322Z,7.01
2022-11-16T05:16:50.322Z,7.01
2022-11-16T05:17:55.062Z,7.01
2022-11-16T05:19:16.617Z,7.08
2022-11-16T05:20:38.107Z,7.09
2022-11-16T05:21:40.750Z,7.00
2022-11-16T05:22:43.550Z,7.01
2022-11-16T05:24:15.276Z,7.07
2022-11-16T05:25:18.372Z,7.09
2022-11-16T05:26:21.066Z,7.08
2022-11-16T05:27:25.348Z,7.04
2022-11-16T05:28:28.021Z,7.01
2022-11-16T05:29:31.295Z,7.08
2022-11-16T05:30:33.945Z,7.01
2022-11-16T05:31:40.468Z,7.01
2022-11-16T05:32:43.887Z,6.96
2022-11-16T05:33:46.580Z,7.00
2022-11-16T05:34:49.746Z,6.97
2022-11-16T05:35:52.819Z,6.99
2022-11-16T05:36:55.999Z,7.04
2022-11-16T05:37:58.788Z,7.02
2022-11-16T05:39:01.641Z,6.97
2022-11-16T05:40:05.168Z,6.97
2022-11-16T05:41:07.841Z,6.99
2022-11-16T05:42:10.737Z,7.04
2022-11-16T05:43:13.350Z,6.99
2022-11-16T05:44:16.827Z,6.99
2022-11-16T05:45:21.215Z,6.96
2022-11-16T05:46:25.308Z,6.92
2022-11-16T05:47:28.728Z,6.91
2022-11-16T05:48:31.693Z,6.90
2022-11-16T05:49:34.660Z,6.94
2022-11-16T05:50:42.305Z,6.91
2022-11-16T05:51:46.733Z,6.90
2022-11-16T05:52:49.543Z,6.94
2022-11-16T05:53:52.236Z,7.06
2022-11-16T05:54:54.936Z,6.96
2022-11-16T05:55:57.742Z,6.97
2022-11-16T05:57:00.698Z,6.89
2022-11-16T05:58:03.374Z,6.87
2022-11-16T05:59:06.346Z,6.87
2022-11-16T06:00:10.215Z,6.87
2022-11-16T06:01:12.943Z,6.86
2022-11-16T06:02:15.693Z,6.95
2022-11-16T06:03:18.525Z,6.93
2022-11-16T06:04:24.782Z,6.92
2022-11-16T06:05:27.609Z,6.86
2022-11-16T06:06:30.341Z,6.86
2022-11-16T06:07:39.192Z,6.88
2022-11-16T06:08:42.099Z,6.86
2022-11-16T06:09:44.813Z,6.87
2022-11-16T06:10:47.393Z,6.86
2022-11-16T06:11:49.989Z,6.87
2022-11-16T06:12:52.663Z,6.88
2022-11-16T06:13:55.547Z,6.90
2022-11-16T06:14:58.507Z,6.97
2022-11-16T06:16:07.267Z,6.93
2022-11-16T06:17:14.663Z,6.89
2022-11-16T06:18:17.462Z,6.89
2022-11-16T06:19:20.224Z,6.90
2022-11-16T06:20:22.940Z,6.96
2022-11-16T06:21:25.622Z,6.96
2022-11-16T06:22:28.224Z,6.94
2022-11-16T06:23:30.921Z,6.94
2022-11-16T06:24:33.733Z,6.94
2022-11-16T06:25:43.288Z,6.95
2022-11-16T06:26:47.322Z,6.96
2022-11-16T06:27:50.375Z,6.98
2022-11-16T06:28:55.233Z,6.98
2022-11-16T06:29:57.884Z,7.00
2022-11-16T06:31:00.783Z,7.02
2022-11-16T06:32:03.507Z,7.06
2022-11-16T06:33:06.635Z,7.07
2022-11-16T06:34:09.268Z,7.05
2022-11-16T06:35:11.923Z,7.06
2022-11-16T06:36:14.618Z,7.07
2022-11-16T06:37:17.252Z,7.07
2022-11-16T06:38:20.784Z,7.07
2022-11-16T06:39:23.351Z,7.12
2022-11-16T06:40:26.358Z,7.14
2022-11-16T06:41:29.067Z,7.12
2022-11-16T06:42:31.841Z,7.10
2022-11-16T06:43:38.214Z,7.10
2022-11-16T06:44:42.296Z,7.15
2022-11-16T06:45:52.006Z,7.19
2022-11-16T06:46:54.598Z,7.24
2022-11-16T06:47:57.235Z,7.34
2022-11-16T06:48:59.953Z,7.37
2022-11-16T06:50:02.820Z,7.33
2022-11-16T06:51:05.813Z,7.35
2022-11-16T06:52:08.434Z,7.40
2022-11-16T06:53:12.251Z,7.30
2022-11-16T06:54:14.928Z,7.25
2022-11-16T06:55:17.686Z,7.20
2022-11-16T06:56:20.267Z,7.21
2022-11-16T06:57:23.671Z,7.28
2022-11-16T06:58:26.295Z,7.33
2022-11-16T06:59:29.085Z,7.30
2022-11-16T07:00:31.922Z,7.26
2022-11-16T07:01:34.912Z,7.22
2022-11-16T07:02:38.546Z,7.23
2022-11-16T07:03:41.230Z,7.23
2022-11-16T07:04:44.601Z,7.21
2022-11-16T07:05:47.314Z,7.19
2022-11-16T07:06:50.042Z,7.18
2022-11-16T07:07:55.899Z,7.19
2022-11-16T07:08:58.551Z,7.20
2022-11-16T07:10:01.628Z,7.20
2022-11-16T07:11:06.180Z,7.21
2022-11-16T07:12:08.754Z,7.21
2022-11-16T07:13:11.354Z,7.24
2022-11-16T07:14:13.951Z,7.25
2022-11-16T07:15:20.335Z,7.27
2022-11-16T07:16:23.169Z,7.33
2022-11-16T07:17:25.890Z,7.43
2022-11-16T07:18:28.904Z,7.35
2022-11-16T07:19:31.598Z,7.34
2022-11-16T07:20:34.989Z,7.37
2022-11-16T07:21:38.260Z,7.34
2022-11-16T07:22:41.272Z,7.37
2022-11-16T07:23:44.299Z,7.47
2022-11-16T07:24:46.918Z,7.45
2022-11-16T07:25:49.619Z,7.40
2022-11-16T07:26:52.305Z,7.35
2022-11-16T07:27:57.742Z,7.34
2022-11-16T07:29:01.690Z,7.37
2022-11-16T07:30:04.708Z,7.39
2022-11-16T07:31:09.653Z,7.36
2022-11-16T07:32:12.280Z,7.37
2022-11-16T07:33:14.924Z,7.36
2022-11-16T07:34:17.499Z,7.35
2022-11-16T07:35:20.309Z,7.44
2022-11-16T07:36:22.953Z,7.40
2022-11-16T07:37:25.725Z,7.33
2022-11-16T07:38:28.936Z,7.30
2022-11-16T07:39:32.364Z,7.30
2022-11-16T07:40:35.052Z,7.30
2022-11-16T07:41:45.268Z,7.30
2022-11-16T07:42:48.022Z,7.29
2022-11-16T07:43:53.184Z,7.32
2022-11-16T07:44:56.175Z,7.37
2022-11-16T07:47:38.271Z,7.33
2022-11-16T07:48:43.013Z,7.38
2022-11-16T07:49:45.604Z,7.51
2022-11-16T07:50:49.371Z,7.46
2022-11-16T07:51:52.066Z,7.51
2022-11-16T07:52:57.838Z,7.59
2022-11-16T07:54:00.574Z,7.53
2022-11-16T07:55:03.316Z,7.49
2022-11-16T07:56:07.101Z,7.48
2022-11-16T07:57:10.324Z,7.46
2022-11-16T07:58:13.275Z,7.52
2022-11-16T07:59:15.939Z,7.50
2022-11-16T08:00:18.781Z,7.49
2022-11-16T08:01:21.398Z,7.48
2022-11-16T08:02:24.083Z,7.55
2022-11-16T08:03:26.633Z,7.60
2022-11-16T08:04:29.171Z,7.61
2022-11-16T08:05:31.796Z,7.61
2022-11-16T08:06:34.445Z,7.65
2022-11-16T08:07:37.249Z,7.71
2022-11-16T08:08:40.543Z,7.72
2022-11-16T08:09:43.733Z,7.79
2022-11-16T08:10:46.449Z,7.96
2022-11-16T08:11:49.193Z,8.00
2022-11-16T08:12:51.884Z,7.93
2022-11-16T08:13:54.579Z,7.80
2022-11-16T08:14:57.214Z,7.75
2022-11-16T08:16:05.814Z,7.75
2022-11-16T08:17:08.745Z,7.74
2022-11-16T08:18:11.550Z,7.83
2022-11-16T08:19:14.206Z,7.79
2022-11-16T08:20:17.390Z,7.73
2022-11-16T08:21:20.052Z,7.72
2022-11-16T08:22:22.665Z,7.78
2022-11-16T08:23:25.345Z,7.83
2022-11-16T08:24:28.315Z,7.79
2022-11-16T08:25:31.131Z,7.79
2022-11-16T08:26:33.785Z,7.82
2022-11-16T08:27:36.446Z,7.86
2022-11-16T08:28:39.393Z,7.84
2022-11-16T08:29:42.270Z,7.80
2022-11-16T08:30:48.454Z,7.75
2022-11-16T08:31:55.676Z,7.78
2022-11-16T08:32:58.323Z,7.91
2022-11-16T08:34:01.157Z,7.98
2022-11-16T08:35:04.045Z,8.05
2022-11-16T08:36:13.751Z,7.99
2022-11-16T08:37:17.509Z,7.90
2022-11-16T08:38:20.715Z,7.85
2022-11-16T08:39:23.685Z,7.84
2022-11-16T08:40:26.317Z,7.84
2022-11-16T08:41:29.234Z,7.84
2022-11-16T08:42:31.844Z,7.83
2022-11-16T08:43:36.098Z,7.83
2022-11-16T08:44:38.840Z,7.85
2022-11-16T08:45:41.716Z,7.85
2022-11-16T08:46:44.385Z,7.87
2022-11-16T08:47:48.452Z,7.89
2022-11-16T08:48:55.917Z,7.90
2022-11-16T08:49:58.543Z,7.95
2022-11-16T08:51:18.456Z,7.89
2022-11-16T08:52:22.245Z,7.87
2022-11-16T08:53:25.159Z,7.88
2022-11-16T08:54:31.173Z,7.89
2022-11-16T08:55:34.304Z,7.93
2022-11-16T08:56:37.191Z,7.94
2022-11-16T08:57:41.100Z,8.02
2022-11-16T08:58:44.469Z,8.02
2022-11-16T08:59:47.546Z,8.04
2022-11-16T09:00:51.709Z,8.09
2022-11-16T09:01:54.525Z,8.06
2022-11-16T09:02:57.063Z,8.08
2022-11-16T09:04:00.324Z,8.08
2022-11-16T09:05:03.663Z,8.05
2022-11-16T09:06:07.282Z,8.14
2022-11-16T09:07:10.434Z,8.15
2022-11-16T09:08:13.224Z,8.16
2022-11-16T09:09:15.905Z,8.13
2022-11-16T09:10:23.096Z,8.16
2022-11-16T09:11:26.077Z,8.25
2022-11-16T09:12:28.679Z,8.28
2022-11-16T09:13:31.390Z,8.32
2022-11-16T09:14:34.132Z,8.36
2022-11-16T09:15:36.711Z,8.41
2022-11-16T09:16:41.161Z,8.35
2022-11-16T09:17:43.782Z,8.35
2022-11-16T09:18:48.247Z,8.42
2022-11-16T09:19:50.885Z,8.46
2022-11-16T09:20:53.753Z,8.40
2022-11-16T09:21:57.340Z,8.34
2022-11-16T09:23:00.007Z,8.34
2022-11-16T09:24:03.163Z,8.34
2022-11-16T09:25:06.562Z,8.34
2022-11-16T09:26:09.372Z,8.28
2022-11-16T09:27:12.065Z,8.29
2022-11-16T09:28:16.316Z,8.32
2022-11-16T09:29:18.973Z,8.37
2022-11-16T09:30:21.661Z,8.35
2022-11-16T09:31:27.802Z,8.42
2022-11-16T09:32:30.433Z,8.34
2022-11-16T09:33:34.524Z,8.30
2022-11-16T09:34:37.605Z,8.28
2022-11-16T09:35:40.585Z,8.25
2022-11-16T09:36:43.477Z,8.27
2022-11-16T09:37:46.223Z,8.18
2022-11-16T09:40:17.084Z,8.28
2022-11-16T09:41:57.175Z,8.28
2022-11-16T09:43:09.186Z,8.25
2022-11-16T09:44:32.645Z,8.17
2022-11-16T09:45:40.974Z,8.15
2022-11-16T09:46:47.565Z,8.18
2022-11-16T09:47:57.786Z,8.17
2022-11-16T09:49:10.511Z,8.17
2022-11-16T09:50:41.715Z,8.16
2022-11-16T09:51:49.820Z,8.13
2022-11-16T09:52:57.271Z,8.05
2022-11-16T09:54:07.917Z,8.06
2022-11-16T09:55:33.895Z,8.11
2022-11-16T09:56:41.387Z,8.05
2022-11-16T09:57:45.354Z,8.11
2022-11-16T09:59:18.469Z,8.18
2022-11-16T10:00:23.879Z,8.24
2022-11-16T10:01:31.288Z,8.25
2022-11-16T10:02:43.456Z,8.31
2022-11-16T10:03:50.675Z,8.28
2022-11-16T10:05:08.315Z,8.27
2022-11-16T10:06:22.007Z,8.24
2022-11-16T10:07:42.091Z,8.30
2022-11-16T10:08:47.712Z,8.25
2022-11-16T10:09:52.059Z,8.28
2022-11-16T10:11:09.391Z,8.17
2022-11-16T10:12:27.225Z,8.12
2022-11-16T10:14:04.227Z,8.16
2022-11-16T10:15:09.970Z,8.13
2022-11-16T10:16:38.391Z,8.14
2022-11-16T10:17:53.061Z,8.15
2022-11-16T10:19:13.772Z,8.19
2022-11-16T10:20:30.481Z,8.19
2022-11-16T10:21:48.537Z,8.24
2022-11-16T10:23:07.244Z,8.26
2022-11-16T10:24:26.460Z,8.32
2022-11-16T10:25:42.554Z,8.29
2022-11-16T10:26:59.561Z,8.27
2022-11-16T10:28:13.803Z,8.27
2022-11-16T10:29:16.434Z,8.27
2022-11-16T10:30:22.074Z,8.18
2022-11-16T10:31:46.610Z,8.08
2022-11-16T10:33:02.822Z,8.05
2022-11-16T10:34:16.655Z,8.09
2022-11-16T10:35:34.763Z,8.07
2022-11-16T10:36:38.617Z,8.11
2022-11-16T10:37:48.042Z,8.07
2022-11-16T10:38:50.886Z,8.11
2022-11-16T10:39:54.197Z,8.08
2022-11-16T10:41:30.767Z,8.13
2022-11-16T10:42:39.444Z,8.04
2022-11-16T10:43:43.799Z,8.09
2022-11-16T10:45:06.245Z,8.10
2022-11-16T10:46:41.043Z,8.14
2022-11-16T10:47:53.410Z,8.11
2022-11-16T10:49:14.309Z,8.05
2022-11-16T10:50:32.607Z,8.06
2022-11-16T10:51:35.272Z,8.07
2022-11-16T10:52:37.960Z,8.10
2022-11-16T10:53:43.930Z,8.13
2022-11-16T10:54:46.519Z,8.16
2022-11-16T10:56:10.606Z,8.18
2022-11-16T10:57:14.942Z,8.14
2022-11-16T10:58:17.676Z,8.15
2022-11-16T10:59:20.845Z,8.17
2022-11-16T11:00:42.120Z,8.14
2022-11-16T11:02:07.944Z,8.11
2022-11-16T11:03:12.279Z,8.13
2022-11-16T11:04:21.393Z,8.11
2022-11-16T11:05:25.442Z,8.20
2022-11-16T11:06:28.448Z,8.18
2022-11-16T11:07:40.099Z,8.24
2022-11-16T11:08:42.982Z,8.21
2022-11-16T11:09:52.554Z,8.24
2022-11-16T11:11:24.997Z,8.24
2022-11-16T11:12:42.677Z,8.16
2022-11-16T11:13:45.193Z,8.17
2022-11-16T11:15:06.325Z,8.24
2022-11-16T11:16:18.489Z,8.19
2022-11-16T11:17:21.148Z,8.16
2022-11-16T11:18:24.479Z,8.24
2022-11-16T11:19:28.971Z,8.27
2022-11-16T11:20:31.568Z,8.26
2022-11-16T11:21:34.725Z,8.26
2022-11-16T11:22:48.491Z,8.21
2022-11-16T11:23:54.351Z,8.21
2022-11-16T11:24:57.185Z,8.13
2022-11-16T11:26:00.892Z,8.13
2022-11-16T11:27:03.844Z,8.10
2022-11-16T11:28:32.078Z,8.02
2022-11-16T11:29:39.117Z,8.17
2022-11-16T11:30:41.876Z,8.08
2022-11-16T11:31:48.993Z,8.05
2022-11-16T11:32:53.284Z,8.05
2022-11-16T11:33:59.808Z,8.10
2022-11-16T11:35:03.751Z,8.08
2022-11-16T11:36:18.826Z,8.15
2022-11-16T11:37:39.920Z,8.07
2022-11-16T11:38:59.431Z,8.12
2022-11-16T11:40:19.078Z,8.05
2022-11-16T11:41:21.920Z,8.08
2022-11-16T11:42:25.190Z,8.16
2022-11-16T11:43:29.539Z,8.14
2022-11-16T11:44:54.662Z,8.18
2022-11-16T11:46:13.250Z,8.19
2022-11-16T11:48:02.527Z,8.17
2022-11-16T11:49:32.000Z,8.15
2022-11-16T11:51:08.107Z,8.03
2022-11-16T11:52:19.736Z,8.08
2022-11-16T11:53:22.708Z,8.03
2022-11-16T11:54:31.326Z,8.08
2022-11-16T11:55:34.973Z,8.09
2022-11-16T11:56:38.148Z,8.04
2022-11-16T11:57:44.127Z,8.08
2022-11-16T11:58:48.184Z,8.14
2022-11-16T11:59:55.207Z,8.20
2022-11-16T12:01:47.305Z,8.19
2022-11-16T12:03:11.647Z,8.02
2022-11-16T12:04:48.631Z,7.97
2022-11-16T12:06:28.448Z,7.93
2022-11-16T12:07:52.600Z,8.02
2022-11-16T12:09:12.656Z,8.05
2022-11-16T12:10:52.093Z,8.11
2022-11-16T12:12:14.969Z,8.15
2022-11-16T12:13:36.589Z,8.15
2022-11-16T12:14:58.670Z,8.05
2022-11-16T12:16:19.347Z,8.07
2022-11-16T12:17:22.106Z,7.99
2022-11-16T12:18:39.537Z,8.10
2022-11-16T12:20:13.297Z,8.19
2022-11-16T12:21:34.083Z,8.18
2022-11-16T12:23:14.925Z,8.18
2022-11-16T12:24:29.453Z,8.20
2022-11-16T12:25:43.896Z,8.08
2022-11-16T12:27:01.471Z,8.11
2022-11-16T12:28:53.331Z,8.05
2022-11-16T12:30:02.909Z,8.13
2022-11-16T12:31:37.206Z,8.07
2022-11-16T12:33:02.674Z,8.13
2022-11-16T12:34:32.924Z,8.10
2022-11-16T12:35:52.533Z,8.10
2022-11-16T12:37:17.027Z,8.06
2022-11-16T12:38:41.141Z,8.02
2022-11-16T12:39:50.872Z,8.03
2022-11-16T12:40:57.857Z,8.11
2022-11-16T12:42:31.673Z,8.09
2022-11-16T12:44:08.129Z,8.13
2022-11-16T12:45:16.753Z,8.16
2022-11-16T12:46:38.062Z,8.11
2022-11-16T12:48:08.779Z,8.09
2022-11-16T12:49:33.183Z,8.16
2022-11-16T12:50:54.681Z,8.19
2022-11-16T12:52:06.269Z,8.17
2022-11-16T12:53:08.761Z,8.10
2022-11-16T12:54:57.673Z,8.01
2022-11-16T12:56:07.834Z,8.03
2022-11-16T12:57:47.895Z,8.05
2022-11-16T12:59:06.064Z,8.12
2022-11-16T13:00:12.927Z,8.12
2022-11-16T13:01:29.786Z,8.12
2022-11-16T13:02:45.021Z,8.11
2022-11-16T13:03:59.502Z,8.09
2022-11-16T13:05:14.512Z,8.16
2022-11-16T13:06:22.307Z,8.19
2022-11-16T13:07:32.094Z,8.14
2022-11-16T13:08:41.947Z,8.05
2022-11-16T13:09:49.345Z,8.07
2022-11-16T13:10:59.107Z,8.11
2022-11-16T13:12:06.865Z,8.08
2022-11-16T13:13:35.847Z,8.17
2022-11-16T13:14:43.306Z,8.18
2022-11-16T13:15:48.158Z,8.16
2022-11-16T13:16:52.343Z,8.03
2022-11-16T13:18:00.651Z,8.08
2022-11-16T13:19:07.484Z,8.12
2022-11-16T13:20:24.446Z,8.17
2022-11-16T13:21:42.285Z,8.18
2022-11-16T13:22:58.522Z,8.10
2022-11-16T13:24:27.340Z,8.03
2022-11-16T13:26:10.365Z,8.09
2022-11-16T13:27:53.935Z,8.04
2022-11-16T13:29:24.735Z,8.02
2022-11-16T13:30:44.208Z,8.05
2022-11-16T13:32:13.604Z,8.03
2022-11-16T13:33:27.389Z,8.00
2022-11-16T13:34:35.851Z,8.02
2022-11-16T13:35:39.364Z,8.01
2022-11-16T13:36:45.237Z,8.02
2022-11-16T13:37:50.659Z,8.02
2022-11-16T13:38:53.864Z,8.04
2022-11-16T13:39:59.544Z,8.10
2022-11-16T13:41:42.429Z,8.04
2022-11-16T13:42:59.086Z,8.06
2022-11-16T13:44:04.712Z,8.11
2022-11-16T13:45:31.128Z,8.14
2022-11-16T13:46:55.783Z,8.16
2022-11-16T13:48:01.575Z,8.14
2022-11-16T13:49:04.850Z,8.15
2022-11-16T13:50:19.786Z,8.10
2022-11-16T13:51:23.373Z,8.16
2022-11-16T13:53:23.513Z,8.13
2022-11-16T13:55:32.492Z,8.07
2022-11-16T13:56:50.312Z,8.12
2022-11-16T13:57:56.332Z,8.20
2022-11-16T13:58:59.225Z,8.08
2022-11-16T14:00:01.854Z,8.03
2022-11-16T14:01:11.112Z,8.11
2022-11-16T14:02:35.147Z,8.14
2022-11-16T14:03:42.542Z,8.10
2022-11-16T14:04:56.575Z,8.21
2022-11-16T14:05:59.180Z,8.25
2022-11-16T14:07:02.145Z,8.19
2022-11-16T14:08:48.331Z,8.27
2022-11-16T14:09:51.120Z,8.26
2022-11-16T14:10:54.060Z,8.28
2022-11-16T14:11:56.747Z,8.26
2022-11-16T14:13:01.604Z,8.21
2022-11-16T14:14:06.768Z,8.17
2022-11-16T14:15:27.499Z,8.05
2022-11-16T14:16:30.233Z,8.04
2022-11-16T14:17:58.277Z,8.18
2022-11-16T14:19:05.027Z,8.16
2022-11-16T14:20:12.812Z,8.04
2022-11-16T14:21:27.474Z,7.97
2022-11-16T14:22:51.639Z,8.05
2022-11-16T14:24:00.464Z,8.08
2022-11-16T14:25:28.599Z,8.01
2022-11-16T14:27:08.644Z,8.20
2022-11-16T14:28:22.883Z,8.12
2022-11-16T14:29:36.802Z,8.04
2022-11-16T14:31:07.226Z,7.97
2022-11-16T14:32:43.484Z,7.91
2022-11-16T14:33:54.975Z,7.91
2022-11-16T14:35:00.388Z,7.98
2022-11-16T14:36:06.407Z,7.97
2022-11-16T14:37:31.286Z,7.99
2022-11-16T14:38:36.905Z,8.06
2022-11-16T14:39:43.613Z,8.10
2022-11-16T14:40:48.693Z,8.16
2022-11-16T14:41:51.585Z,8.16
2022-11-16T14:43:23.046Z,8.05
2022-11-16T14:44:30.862Z,7.98
2022-11-16T14:45:37.315Z,7.89
2022-11-16T14:46:42.038Z,7.99
2022-11-16T14:47:48.630Z,8.10
2022-11-16T14:48:51.941Z,8.04
2022-11-16T14:49:55.978Z,7.92
2022-11-16T14:51:34.133Z,7.98
2022-11-16T14:52:45.527Z,7.91
2022-11-16T14:53:52.701Z,7.92
2022-11-16T14:55:00.393Z,7.87
2022-11-16T14:56:14.264Z,7.88
2022-11-16T14:57:22.277Z,7.95
2022-11-16T14:58:24.879Z,7.97
2022-11-16T14:59:29.073Z,7.96
2022-11-16T15:00:32.247Z,7.88
2022-11-16T15:01:39.238Z,7.90
2022-11-16T15:02:49.440Z,7.98
2022-11-16T15:04:02.690Z,7.85
2022-11-16T15:05:06.317Z,7.90
2022-11-16T15:06:09.246Z,7.94
2022-11-16T15:07:14.856Z,7.91
2022-11-16T15:08:23.567Z,7.86
2022-11-16T15:09:35.291Z,7.90
2022-11-16T15:10:49.523Z,7.82
2022-11-16T15:12:14.911Z,7.88
2022-11-16T15:13:20.518Z,7.78
2022-11-16T15:14:28.602Z,7.77
2022-11-16T15:15:32.076Z,7.83
2022-11-16T15:16:49.104Z,7.81
2022-11-16T15:18:00.961Z,7.85
2022-11-16T15:19:03.592Z,7.88
2022-11-16T15:20:24.561Z,7.80
2022-11-16T15:21:29.401Z,7.77
2022-11-16T15:22:39.864Z,7.77
2022-11-16T15:23:56.886Z,7.80
2022-11-16T15:25:31.273Z,7.91
2022-11-16T15:26:33.817Z,7.80